KSJN

St Johns Industrial Airpark

St Johns, Arizona, USA
METAR KSJN 182328Z AUTO 03017G29KT 10SM VCTS BKN090 26/12 A3016 RMK AO2 PK WND 35035/2314 WSHFT 2308 LTG DSNT ALQDS T02610117
Observed Flight Rules
Aug-18 @ 23:28 UTC (18 minutes ago) Visual Flight Rules
Wind Visibility Clouds Conditions
30° at 17 knots
 Gusting to 29 knots
10 miles
  • Broken at 9,000' AGL
  • Area Thunderstorm
Temperatures Readings
Current 26°C / 79°F
Dewpoint 12°C / 54°F
Humidity 42%
Altimeter 30.16" Hg
Pressure 1021 hPa
Elevation 1745
METAR KSJN 182328Z AUTO 03017G29KT 10SM VCTS BKN090 26/12 A3016 RMK AO2 PK WND 35035/2314 WSHFT 2308 LTG DSNT ALQDS T02610117
Observed Flight Rules
Aug-18 @ 23:28 UTC
(18 minutes ago)
VFR
Wind Visibility
30° at 17 knots
 Gusting to 29 knots
10 miles
Clouds
  • Broken at 9,000' AGL
Conditions
  • Area Thunderstorm
Temperature Dewpoint
26°C / 79°F 12°C / 54°F
Humidity Altimeter Pressure
42% 30.16" Hg 1021 hPa